createdAt,value
2022-08-04T00:00:06.652Z,24.82
2022-08-04T00:02:53.607Z,24.84
2022-08-04T00:05:30.973Z,24.73
2022-08-04T00:08:20.038Z,24.67
2022-08-04T00:10:54.328Z,24.66
2022-08-04T00:13:23.526Z,24.67
2022-08-04T00:16:02.104Z,24.50
2022-08-04T00:18:34.925Z,24.45
2022-08-04T00:21:06.094Z,24.48
2022-08-04T00:24:10.916Z,24.51
2022-08-04T00:26:23.850Z,24.55
2022-08-04T00:28:54.117Z,24.44
2022-08-04T00:31:53.581Z,24.40
2022-08-04T00:34:14.079Z,24.34
2022-08-04T00:36:44.135Z,24.29
2022-08-04T00:39:13.908Z,24.28
2022-08-04T00:42:03.464Z,24.20
2022-08-04T00:45:02.225Z,24.12
2022-08-04T00:47:42.458Z,24.10
2022-08-04T00:50:11.700Z,24.03
2022-08-04T00:52:48.711Z,23.98
2022-08-04T00:55:36.678Z,24.00
2022-08-04T00:58:14.160Z,23.91
2022-08-04T01:01:20.807Z,23.84
2022-08-04T01:03:57.707Z,23.88
2022-08-04T01:06:56.429Z,23.88
2022-08-04T01:10:03.197Z,23.82
2022-08-04T01:12:49.595Z,23.82
2022-08-04T01:15:23.713Z,23.84
2022-08-04T01:17:55.610Z,23.80
2022-08-04T01:20:25.790Z,23.72
2022-08-04T01:22:59.327Z,23.78
2022-08-04T01:25:40.274Z,23.78
2022-08-04T01:28:28.971Z,23.70
2022-08-04T01:30:58.653Z,23.65
2022-08-04T01:33:29.850Z,23.68
2022-08-04T01:36:05.059Z,23.60
2022-08-04T01:38:42.204Z,23.58
2022-08-04T01:41:12.095Z,23.51
2022-08-04T01:43:44.855Z,23.48
2022-08-04T01:46:17.341Z,23.45
2022-08-04T01:48:47.258Z,23.45
2022-08-04T01:51:14.751Z,23.42
2022-08-04T01:53:44.070Z,23.36
2022-08-04T01:56:12.561Z,23.35
2022-08-04T01:58:40.645Z,23.28
2022-08-04T02:01:10.615Z,23.28
2022-08-04T02:04:18.607Z,23.20
2022-08-04T02:06:58.787Z,23.27
2022-08-04T02:09:35.356Z,23.13
2022-08-04T02:12:31.078Z,23.16
2022-08-04T02:15:10.371Z,23.16
2022-08-04T02:17:43.580Z,23.14
2022-08-04T02:20:16.153Z,23.16
2022-08-04T02:23:05.263Z,23.07
2022-08-04T02:25:38.583Z,23.21
2022-08-04T02:28:35.160Z,23.14
2022-08-04T02:31:25.186Z,23.08
2022-08-04T02:34:03.832Z,23.13
2022-08-04T02:36:35.909Z,23.05
2022-08-04T02:39:05.255Z,23.07
2022-08-04T02:41:34.007Z,23.11
2022-08-04T02:44:03.527Z,23.08
2022-08-04T02:46:32.028Z,23.20
2022-08-04T02:49:03.787Z,23.05
2022-08-04T02:51:36.782Z,23.02
2022-08-04T02:54:06.504Z,23.03
2022-08-04T02:56:35.696Z,22.87
2022-08-04T02:59:11.862Z,23.02
2022-08-04T03:01:57.531Z,22.96
2022-08-04T03:05:00.846Z,22.96
2022-08-04T03:07:51.309Z,22.91
2022-08-04T03:10:42.516Z,22.88
2022-08-04T03:13:25.893Z,22.81
2022-08-04T03:16:35.539Z,22.89
2022-08-04T03:19:27.666Z,22.86
2022-08-04T03:22:59.845Z,22.83
2022-08-04T03:25:56.731Z,22.83
2022-08-04T03:28:51.197Z,22.84
2022-08-04T03:31:24.137Z,22.93
2022-08-04T03:34:09.255Z,22.93
2022-08-04T03:36:41.693Z,23.01
2022-08-04T03:39:31.100Z,23.03
2022-08-04T03:42:26.476Z,23.09
2022-08-04T03:45:24.035Z,23.00
2022-08-04T03:48:19.411Z,23.09
2022-08-04T03:51:32.306Z,23.19
2022-08-04T03:54:05.564Z,23.17
2022-08-04T03:56:57.892Z,23.27
2022-08-04T03:59:41.326Z,23.33
2022-08-04T04:02:35.598Z,23.36
2022-08-04T04:05:15.300Z,23.45
2022-08-04T04:08:12.593Z,23.42
2022-08-04T04:11:19.373Z,23.46
2022-08-04T04:14:06.808Z,23.60
2022-08-04T04:16:59.437Z,23.56
2022-08-04T04:19:45.690Z,23.66
2022-08-04T04:22:35.414Z,23.73
2022-08-04T04:25:05.589Z,23.76
2022-08-04T04:28:44.928Z,23.91
2022-08-04T04:31:21.526Z,24.01
2022-08-04T04:34:46.083Z,24.11
2022-08-04T04:37:49.074Z,24.18
2022-08-04T04:40:32.081Z,24.33
2022-08-04T04:43:11.551Z,24.43
2022-08-04T04:45:49.132Z,24.50
2022-08-04T04:48:26.799Z,24.61
2022-08-04T04:51:16.225Z,24.73
2022-08-04T04:54:02.145Z,24.91
2022-08-04T04:56:47.565Z,24.95
2022-08-04T04:59:17.184Z,25.01
2022-08-04T05:02:00.311Z,25.08
2022-08-04T05:04:38.223Z,25.18
2022-08-04T05:07:50.332Z,25.16
2022-08-04T05:10:29.571Z,25.24
2022-08-04T05:14:38.056Z,25.45
2022-08-04T05:16:38.079Z,25.50
2022-08-04T05:19:36.486Z,25.55
2022-08-04T05:22:14.434Z,25.70
2022-08-04T05:24:45.402Z,25.78
2022-08-04T05:27:17.479Z,25.86
2022-08-04T05:29:57.786Z,25.96
2022-08-04T05:32:28.668Z,26.12
2022-08-04T05:35:00.739Z,26.22
2022-08-04T05:37:30.328Z,26.42
2022-08-04T05:40:02.882Z,26.38
2022-08-04T05:42:32.009Z,26.54
2022-08-04T05:45:00.220Z,26.58
2022-08-04T05:47:28.213Z,26.63
2022-08-04T05:50:01.271Z,26.74
2022-08-04T05:52:31.703Z,26.86
2022-08-04T05:55:00.656Z,26.84
2022-08-04T05:57:28.627Z,27.10
2022-08-04T05:59:59.901Z,27.19
2022-08-04T06:02:28.125Z,27.13
2022-08-04T06:04:56.304Z,27.30
2022-08-04T06:07:23.828Z,27.36
2022-08-04T06:09:51.251Z,27.47
2022-08-04T06:12:22.279Z,27.50
2022-08-04T06:14:52.951Z,27.64
2022-08-04T06:19:57.271Z,27.73
2022-08-04T06:20:20.057Z,27.81
2022-08-04T06:22:54.169Z,27.95
2022-08-04T06:25:25.233Z,27.91
2022-08-04T06:27:53.399Z,28.13
2022-08-04T06:30:21.963Z,28.28
2022-08-04T06:33:04.372Z,28.46
2022-08-04T06:35:33.635Z,28.64
2022-08-04T06:38:02.819Z,28.95
2022-08-04T06:40:33.659Z,28.99
2022-08-04T06:43:03.953Z,29.05
2022-08-04T06:45:34.249Z,29.27
2022-08-04T06:48:02.892Z,29.31
2022-08-04T06:51:29.345Z,29.44
2022-08-04T06:53:18.474Z,29.47
2022-08-04T06:55:46.995Z,29.69
2022-08-04T06:58:15.487Z,30.10
2022-08-04T07:00:44.981Z,30.10
2022-08-04T07:03:12.743Z,30.27
2022-08-04T07:05:40.957Z,30.44
2022-08-04T07:08:11.312Z,30.56
2022-08-04T07:10:39.327Z,30.83
2022-08-04T07:13:07.676Z,30.73
2022-08-04T07:15:36.115Z,30.78
2022-08-04T07:18:05.098Z,31.01
2022-08-04T07:20:35.656Z,31.09
2022-08-04T07:23:04.626Z,31.15
2022-08-04T07:26:11.433Z,31.16
2022-08-04T07:28:22.930Z,31.36
2022-08-04T07:30:50.641Z,31.41
2022-08-04T07:33:18.926Z,31.48
2022-08-04T07:36:10.301Z,31.50
2022-08-04T07:38:48.267Z,31.57
2022-08-04T07:41:39.066Z,31.71
2022-08-04T07:44:07.218Z,31.84
2022-08-04T07:46:36.138Z,32.10
2022-08-04T07:49:05.135Z,32.08
2022-08-04T07:51:33.310Z,32.00
2022-08-04T07:54:03.853Z,32.11
2022-08-04T07:56:32.957Z,32.19
2022-08-04T07:59:01.274Z,32.30
2022-08-04T08:01:29.128Z,32.35
2022-08-04T08:03:58.075Z,32.30
2022-08-04T08:06:33.273Z,32.31
2022-08-04T08:09:14.742Z,32.29
2022-08-04T08:12:36.348Z,32.34
2022-08-04T08:14:31.622Z,32.17
2022-08-04T08:17:04.099Z,32.37
2022-08-04T08:19:33.146Z,32.42
2022-08-04T08:22:01.631Z,32.07
2022-08-04T08:24:30.163Z,32.12
2022-08-04T08:27:00.068Z,32.31
2022-08-04T08:29:29.491Z,32.49
2022-08-04T08:32:01.329Z,32.53
2022-08-04T08:34:30.052Z,32.72
2022-08-04T08:37:15.709Z,32.76
2022-08-04T08:39:54.320Z,33.08
2022-08-04T08:42:36.476Z,32.89
2022-08-04T08:45:28.848Z,32.97
2022-08-04T08:48:43.063Z,33.18
2022-08-04T08:51:11.370Z,33.38
2022-08-04T08:53:57.288Z,33.21
2022-08-04T08:56:46.003Z,33.26
2022-08-04T08:59:20.499Z,33.27
2022-08-04T09:02:00.958Z,33.51
2022-08-04T09:05:02.076Z,33.50
2022-08-04T09:07:52.920Z,33.51
2022-08-04T09:10:41.984Z,33.49
2022-08-04T09:13:46.273Z,33.65
2022-08-04T09:16:38.989Z,33.57
2022-08-04T09:19:22.965Z,33.79
2022-08-04T09:22:20.811Z,33.75
2022-08-04T09:25:19.399Z,33.72
2022-08-04T09:27:56.162Z,33.83
2022-08-04T09:30:33.047Z,34.02
2022-08-04T09:33:22.685Z,34.11
2022-08-04T09:36:27.860Z,34.30
2022-08-04T09:39:20.290Z,34.32
2022-08-04T09:42:02.083Z,34.21
2022-08-04T09:44:56.393Z,34.34
2022-08-04T09:47:41.773Z,34.47
2022-08-04T09:50:35.579Z,34.55
2022-08-04T09:53:11.563Z,34.44
2022-08-04T09:55:53.748Z,34.68
2022-08-04T09:58:30.943Z,34.63
2022-08-04T10:01:05.027Z,34.82
2022-08-04T10:03:35.352Z,34.84
2022-08-04T10:06:44.457Z,34.93
2022-08-04T10:09:34.256Z,34.92
2022-08-04T10:12:17.845Z,34.97
2022-08-04T10:14:56.357Z,35.10
2022-08-04T10:17:52.222Z,35.12
2022-08-04T10:20:51.748Z,35.14
2022-08-04T10:23:56.634Z,34.96
2022-08-04T10:26:33.726Z,35.04
2022-08-04T10:29:14.468Z,35.06
2022-08-04T10:31:54.718Z,35.15
2022-08-04T10:34:26.604Z,35.00
2022-08-04T10:37:09.334Z,35.16
2022-08-04T10:40:11.984Z,35.21
2022-08-04T10:42:49.390Z,35.20
2022-08-04T10:45:25.504Z,34.71
2022-08-04T10:48:01.613Z,35.13
2022-08-04T10:50:29.957Z,35.21
2022-08-04T10:53:09.515Z,35.23
2022-08-04T10:56:07.111Z,35.49
2022-08-04T10:58:48.003Z,35.53
2022-08-04T11:02:02.940Z,35.54
2022-08-04T11:04:33.164Z,35.59
2022-08-04T11:07:00.770Z,35.75
2022-08-04T11:09:29.936Z,35.89
2022-08-04T11:12:19.840Z,35.86
2022-08-04T11:14:56.326Z,35.81
2022-08-04T11:17:35.761Z,35.71
2022-08-04T11:20:41.866Z,35.84
2022-08-04T11:23:12.060Z,35.80
2022-08-04T11:26:01.946Z,35.88
2022-08-04T11:29:03.598Z,35.86
2022-08-04T11:31:35.871Z,35.91
2022-08-04T11:34:25.700Z,35.89
2022-08-04T11:37:18.053Z,35.84
2022-08-04T11:39:50.528Z,35.85
2022-08-04T11:42:33.591Z,35.95
2022-08-04T11:45:10.686Z,35.94
2022-08-04T11:47:39.656Z,36.02
2022-08-04T11:50:15.888Z,36.09
2022-08-04T11:52:44.471Z,36.15
2022-08-04T11:55:15.525Z,36.25
2022-08-04T11:57:44.597Z,36.38
2022-08-04T12:00:13.817Z,36.52
2022-08-04T12:03:00.288Z,36.47
2022-08-04T12:05:36.589Z,36.39
2022-08-04T12:08:33.006Z,36.35
2022-08-04T12:11:16.359Z,36.36
2022-08-04T12:14:05.647Z,36.37
2022-08-04T12:16:43.049Z,36.42
2022-08-04T12:19:21.442Z,36.48
2022-08-04T12:22:04.279Z,36.53
2022-08-04T12:24:40.329Z,36.27
2022-08-04T12:27:15.818Z,36.45
2022-08-04T12:31:00.599Z,36.42
2022-08-04T12:33:01.294Z,36.40
2022-08-04T12:36:11.850Z,36.15
2022-08-04T12:38:47.658Z,36.43
2022-08-04T12:41:19.442Z,36.56
2022-08-04T12:43:47.388Z,36.41
2022-08-04T12:46:33.590Z,36.15
2022-08-04T12:49:03.986Z,36.05
2022-08-04T12:52:08.274Z,35.97
2022-08-04T12:54:33.695Z,35.82
2022-08-04T12:57:02.180Z,35.94
2022-08-04T12:59:29.756Z,36.11
2022-08-04T13:02:09.176Z,36.14
2022-08-04T13:04:42.972Z,36.07
2022-08-04T13:07:36.987Z,36.20
2022-08-04T13:10:13.723Z,36.36
2022-08-04T13:12:55.268Z,36.43
2022-08-04T13:15:24.568Z,36.44
2022-08-04T13:17:57.082Z,36.60
2022-08-04T13:20:30.436Z,36.54
2022-08-04T13:23:10.039Z,36.48
2022-08-04T13:26:44.109Z,36.18
2022-08-04T13:28:35.021Z,36.19
2022-08-04T13:31:06.265Z,35.96
2022-08-04T13:33:39.400Z,35.96
2022-08-04T13:36:08.088Z,35.83
2022-08-04T13:38:40.097Z,35.89
2022-08-04T13:41:08.376Z,35.75
2022-08-04T13:43:48.511Z,35.53
2022-08-04T13:46:34.326Z,35.49
2022-08-04T13:51:58.382Z,35.74
2022-08-04T13:54:35.426Z,35.93
2022-08-04T13:57:19.287Z,35.94
2022-08-04T13:59:49.508Z,36.02
2022-08-04T14:02:39.804Z,36.04
2022-08-04T14:05:30.365Z,35.93
2022-08-04T14:08:18.683Z,36.08
2022-08-04T14:10:54.904Z,36.15
2022-08-04T14:13:42.468Z,35.84
2022-08-04T14:16:21.039Z,35.91
2022-08-04T14:18:58.284Z,35.67
2022-08-04T14:21:25.941Z,35.72
2022-08-04T14:23:55.339Z,35.67
2022-08-04T14:26:33.679Z,35.50
2022-08-04T14:29:28.162Z,35.60
2022-08-04T14:32:10.753Z,35.72
2022-08-04T14:34:45.149Z,35.69
2022-08-04T14:37:20.528Z,35.70
2022-08-04T14:40:17.751Z,35.70
2022-08-04T14:42:54.972Z,35.44
2022-08-04T14:45:54.213Z,35.33
2022-08-04T14:48:23.147Z,35.22
2022-08-04T14:50:51.039Z,35.17
2022-08-04T14:53:20.856Z,35.26
2022-08-04T14:55:51.332Z,35.23
2022-08-04T14:58:36.227Z,35.38
2022-08-04T15:01:10.089Z,35.45
2022-08-04T15:03:48.286Z,35.36
2022-08-04T15:06:26.215Z,35.33
2022-08-04T15:08:56.830Z,35.31
2022-08-04T15:11:24.937Z,35.40
2022-08-04T15:13:53.131Z,35.49
2022-08-04T15:16:22.403Z,35.42
2022-08-04T15:18:51.132Z,35.50
2022-08-04T15:21:22.726Z,35.37
2022-08-04T15:23:50.709Z,35.37
2022-08-04T15:26:29.210Z,35.39
2022-08-04T15:29:00.832Z,35.34
2022-08-04T15:32:04.113Z,35.28
2022-08-04T15:34:16.661Z,35.14
2022-08-04T15:36:56.196Z,35.11
2022-08-04T15:39:36.028Z,35.11
2022-08-04T15:42:21.450Z,35.09
2022-08-04T15:46:35.010Z,35.15
2022-08-04T15:48:23.286Z,34.91
2022-08-04T15:50:57.856Z,34.99
2022-08-04T15:53:28.735Z,34.89
2022-08-04T15:56:23.638Z,34.84
2022-08-04T15:58:57.410Z,34.79
2022-08-04T16:01:25.446Z,34.90
2022-08-04T16:04:00.367Z,35.04
2022-08-04T16:06:29.472Z,35.08
2022-08-04T16:08:59.922Z,34.89
2022-08-04T16:11:32.365Z,34.95
2022-08-04T16:14:01.005Z,34.90
2022-08-04T16:16:29.649Z,34.72
2022-08-04T16:19:06.106Z,34.84
2022-08-04T16:21:35.971Z,34.85
2022-08-04T16:24:17.948Z,34.69
2022-08-04T16:26:56.067Z,34.62
2022-08-04T16:29:23.771Z,34.67
2022-08-04T16:32:13.124Z,34.63
2022-08-04T16:34:54.040Z,34.72
2022-08-04T16:37:34.552Z,34.76
2022-08-04T16:40:23.949Z,34.63
2022-08-04T16:42:51.650Z,34.57
2022-08-04T16:45:19.090Z,34.55
2022-08-04T16:47:49.490Z,34.67
2022-08-04T16:50:22.156Z,34.52
2022-08-04T16:52:54.272Z,34.35
2022-08-04T16:55:24.525Z,34.38
2022-08-04T16:57:53.897Z,34.29
2022-08-04T17:00:41.697Z,34.24
2022-08-04T17:03:11.657Z,34.29
2022-08-04T17:05:40.475Z,34.40
2022-08-04T17:10:56.745Z,34.41
2022-08-04T17:14:03.840Z,34.19
2022-08-04T17:16:25.456Z,34.13
2022-08-04T17:18:54.244Z,34.10
2022-08-04T17:21:28.096Z,34.14
2022-08-04T17:24:14.552Z,34.28
2022-08-04T17:26:54.247Z,34.12
2022-08-04T17:29:43.268Z,34.10
2022-08-04T17:32:21.367Z,34.04
2022-08-04T17:35:00.467Z,34.01
2022-08-04T17:37:39.218Z,33.93
2022-08-04T17:40:14.356Z,33.87
2022-08-04T17:42:46.039Z,33.81
2022-08-04T17:48:08.950Z,33.71
2022-08-04T17:50:43.171Z,33.67
2022-08-04T17:53:12.982Z,33.57
2022-08-04T17:55:46.945Z,33.47
2022-08-04T17:58:22.099Z,33.39
2022-08-04T18:03:51.900Z,33.18
2022-08-04T18:06:23.125Z,33.12
2022-08-04T18:08:59.330Z,33.02
2022-08-04T18:11:52.797Z,32.98
2022-08-04T18:14:28.676Z,32.85
2022-08-04T18:16:56.524Z,32.76
2022-08-04T18:19:24.149Z,32.67
2022-08-04T18:21:59.353Z,32.58
2022-08-04T18:24:35.521Z,32.49
2022-08-04T18:27:23.937Z,32.32
2022-08-04T18:30:34.318Z,32.18
2022-08-04T18:32:56.392Z,32.04
2022-08-04T18:36:31.432Z,31.92
2022-08-04T18:38:22.245Z,31.79
2022-08-04T18:40:53.173Z,31.64
2022-08-04T18:43:28.687Z,31.59
2022-08-04T18:45:59.468Z,31.45
2022-08-04T18:48:36.887Z,31.23
2022-08-04T18:51:10.878Z,31.02
2022-08-04T18:53:55.229Z,30.86
2022-08-04T18:56:31.752Z,30.82
2022-08-04T18:59:01.538Z,30.65
2022-08-04T19:02:09.249Z,30.45
2022-08-04T19:07:24.624Z,30.62
2022-08-04T19:09:57.719Z,30.47
2022-08-04T19:12:28.391Z,30.36
2022-08-04T19:14:58.811Z,30.29
2022-08-04T19:17:52.455Z,30.15
2022-08-04T19:20:25.751Z,30.08
2022-08-04T19:24:27.866Z,30.02
2022-08-04T19:26:02.172Z,29.93
2022-08-04T19:28:34.435Z,29.85
2022-08-04T19:31:04.607Z,29.76
2022-08-04T19:33:59.641Z,29.75
2022-08-04T19:36:20.634Z,29.46
2022-08-04T19:38:57.753Z,29.48
2022-08-04T19:41:26.684Z,29.38
2022-08-04T19:43:54.857Z,29.31
2022-08-04T19:46:24.835Z,29.23
2022-08-04T19:48:59.217Z,29.23
2022-08-04T19:51:32.796Z,29.18
2022-08-04T19:54:02.758Z,29.12
2022-08-04T19:56:40.472Z,29.10
2022-08-04T19:59:11.541Z,29.02
2022-08-04T20:01:44.556Z,28.96
2022-08-04T20:04:14.376Z,28.91
2022-08-04T20:06:42.687Z,28.78
2022-08-04T20:09:26.712Z,28.74
2022-08-04T20:11:58.217Z,28.70
2022-08-04T20:14:32.423Z,28.69
2022-08-04T20:17:02.454Z,28.60
2022-08-04T20:19:30.481Z,28.60
2022-08-04T20:21:58.497Z,28.52
2022-08-04T20:24:37.684Z,28.45
2022-08-04T20:27:15.264Z,28.45
2022-08-04T20:29:49.404Z,28.34
2022-08-04T20:32:19.895Z,28.34
2022-08-04T20:34:52.163Z,28.22
2022-08-04T20:37:22.870Z,28.10
2022-08-04T20:39:58.057Z,28.09
2022-08-04T20:42:27.403Z,27.98
2022-08-04T20:45:01.280Z,27.90
2022-08-04T20:47:33.692Z,27.92
2022-08-04T20:50:05.565Z,27.89
2022-08-04T20:52:37.649Z,27.88
2022-08-04T20:55:06.984Z,27.89
2022-08-04T20:57:47.516Z,27.82
2022-08-04T21:00:30.050Z,27.75
2022-08-04T21:03:00.625Z,27.72
2022-08-04T21:05:29.137Z,27.66
2022-08-04T21:07:59.154Z,27.59
2022-08-04T21:10:27.103Z,27.57
2022-08-04T21:12:55.122Z,27.52
2022-08-04T21:15:57.777Z,27.48
2022-08-04T21:18:14.164Z,27.43
2022-08-04T21:20:43.376Z,27.48
2022-08-04T21:23:11.119Z,27.40
2022-08-04T21:25:42.794Z,27.39
2022-08-04T21:28:12.328Z,27.36
2022-08-04T21:30:52.603Z,27.27
2022-08-04T21:33:22.867Z,27.09
2022-08-04T21:35:54.583Z,27.09
2022-08-04T21:38:28.077Z,27.11
2022-08-04T21:40:57.829Z,26.96
2022-08-04T21:43:28.458Z,26.90
2022-08-04T21:45:56.971Z,26.87
2022-08-04T21:48:32.312Z,26.86
2022-08-04T21:51:57.231Z,26.84
2022-08-04T21:54:06.516Z,26.80
2022-08-04T21:56:35.055Z,26.86
2022-08-04T21:59:08.795Z,26.80
2022-08-04T22:01:51.665Z,26.73
2022-08-04T22:04:20.139Z,26.67
2022-08-04T22:06:51.780Z,26.60
2022-08-04T22:09:22.066Z,26.57
2022-08-04T22:11:50.992Z,26.55
2022-08-04T22:14:27.514Z,26.51
2022-08-04T22:17:02.189Z,26.53
2022-08-04T22:19:50.105Z,26.52
2022-08-04T22:22:25.908Z,26.42
2022-08-04T22:24:58.996Z,26.40
2022-08-04T22:27:47.249Z,26.29
2022-08-04T22:30:17.417Z,26.24
2022-08-04T22:32:47.196Z,26.19
2022-08-04T22:35:44.371Z,26.18
2022-08-04T22:38:06.056Z,26.10
2022-08-04T22:40:41.061Z,26.08
2022-08-04T22:43:31.695Z,26.08
2022-08-04T22:45:55.781Z,26.04
2022-08-04T22:48:23.463Z,26.01
2022-08-04T22:50:54.852Z,26.06
2022-08-04T22:53:22.236Z,25.99
2022-08-04T22:56:07.512Z,25.99
2022-08-04T22:58:40.251Z,25.98
2022-08-04T23:01:09.278Z,25.92
2022-08-04T23:03:38.482Z,25.92
2022-08-04T23:06:10.674Z,25.82
2022-08-04T23:08:43.106Z,25.80
2022-08-04T23:11:14.754Z,25.78
2022-08-04T23:13:42.556Z,25.81
2022-08-04T23:16:10.610Z,25.74
2022-08-04T23:18:41.837Z,25.74
2022-08-04T23:21:10.978Z,25.74
2022-08-04T23:23:47.794Z,25.74
2022-08-04T23:26:27.331Z,25.73
2022-08-04T23:28:56.390Z,25.67
2022-08-04T23:31:24.349Z,25.65
2022-08-04T23:33:52.584Z,25.65
2022-08-04T23:36:26.462Z,25.64
2022-08-04T23:39:04.021Z,25.57
2022-08-04T23:41:53.432Z,25.59
2022-08-04T23:44:24.675Z,25.49
2022-08-04T23:47:03.838Z,25.40
2022-08-04T23:49:43.865Z,25.40
2022-08-04T23:52:27.558Z,25.36
2022-08-04T23:54:59.241Z,25.37
2022-08-04T23:57:31.040Z,25.42
